sensor_id;sensor_type;location;lat;lon;timestamp;pressure;altitude;pressure_sealevel;temperature;humidity
80424;BME280;69765;47.668;19.326;2024-02-23T00:00:09;97817.56;;;9.38;61.57
80424;BME280;69765;47.668;19.326;2024-02-23T00:03:13;97807.69;;;9.45;61.61
80424;BME280;69765;47.668;19.326;2024-02-23T00:06:17;97808.81;;;9.51;61.07
80424;BME280;69765;47.668;19.326;2024-02-23T00:09:19;97813.59;;;9.44;61.44
80424;BME280;69765;47.668;19.326;2024-02-23T00:12:22;97822.31;;;9.48;61.39
80424;BME280;69765;47.668;19.326;2024-02-23T00:15:24;97810.19;;;9.44;61.46
80424;BME280;69765;47.668;19.326;2024-02-23T00:18:27;97813.75;;;9.47;61.56
80424;BME280;69765;47.668;19.326;2024-02-23T00:21:29;97805.06;;;9.44;61.47
80424;BME280;69765;47.668;19.326;2024-02-23T00:24:31;97814.47;;;9.45;61.72
80424;BME280;69765;47.668;19.326;2024-02-23T00:27:34;97806.59;;;9.40;61.77
80424;BME280;69765;47.668;19.326;2024-02-23T00:30:36;97801.63;;;9.43;61.53
80424;BME280;69765;47.668;19.326;2024-02-23T00:33:38;97806.16;;;9.49;61.57
80424;BME280;69765;47.668;19.326;2024-02-23T00:36:44;97805.66;;;9.56;61.24
80424;BME280;69765;47.668;19.326;2024-02-23T00:39:47;97811.03;;;9.44;62.02
80424;BME280;69765;47.668;19.326;2024-02-23T00:42:49;97807.91;;;9.50;61.42
80424;BME280;69765;47.668;19.326;2024-02-23T00:45:51;97805.00;;;9.60;60.74
80424;BME280;69765;47.668;19.326;2024-02-23T00:48:53;97805.78;;;9.59;61.05
80424;BME280;69765;47.668;19.326;2024-02-23T00:51:56;97796.31;;;9.57;61.05
80424;BME280;69765;47.668;19.326;2024-02-23T00:54:58;97805.00;;;9.60;60.93
80424;BME280;69765;47.668;19.326;2024-02-23T00:58:00;97800.03;;;9.63;60.96
80424;BME280;69765;47.668;19.326;2024-02-23T01:01:03;97800.91;;;9.64;60.63
80424;BME280;69765;47.668;19.326;2024-02-23T01:04:05;97796.75;;;9.66;60.90
80424;BME280;69765;47.668;19.326;2024-02-23T01:07:07;97791.25;;;9.58;61.38
80424;BME280;69765;47.668;19.326;2024-02-23T01:10:10;97790.59;;;9.62;61.48
80424;BME280;69765;47.668;19.326;2024-02-23T01:13:12;97798.66;;;9.52;62.98
80424;BME280;69765;47.668;19.326;2024-02-23T01:16:15;97773.25;;;9.55;62.78
80424;BME280;69765;47.668;19.326;2024-02-23T01:19:17;97786.16;;;9.58;62.97
80424;BME280;69765;47.668;19.326;2024-02-23T01:22:21;97790.38;;;9.58;63.79
80424;BME280;69765;47.668;19.326;2024-02-23T01:25:23;97787.56;;;9.52;64.47
80424;BME280;69765;47.668;19.326;2024-02-23T01:28:25;97771.25;;;9.50;65.15
80424;BME280;69765;47.668;19.326;2024-02-23T01:31:27;97775.69;;;9.54;65.98
80424;BME280;69765;47.668;19.326;2024-02-23T01:34:30;97769.34;;;9.45;67.26
80424;BME280;69765;47.668;19.326;2024-02-23T01:37:32;97785.16;;;9.37;68.37
80424;BME280;69765;47.668;19.326;2024-02-23T01:40:34;97777.59;;;9.40;68.91
80424;BME280;69765;47.668;19.326;2024-02-23T01:43:37;97769.81;;;9.37;70.33
80424;BME280;69765;47.668;19.326;2024-02-23T01:46:39;97771.91;;;9.28;71.80
80424;BME280;69765;47.668;19.326;2024-02-23T01:49:42;97766.84;;;9.11;73.50
80424;BME280;69765;47.668;19.326;2024-02-23T01:52:44;97767.59;;;9.09;74.59
80424;BME280;69765;47.668;19.326;2024-02-23T01:55:47;97761.41;;;9.04;75.40
80424;BME280;69765;47.668;19.326;2024-02-23T01:58:49;97772.31;;;9.01;76.23
80424;BME280;69765;47.668;19.326;2024-02-23T02:01:52;97766.75;;;8.92;77.70
80424;BME280;69765;47.668;19.326;2024-02-23T02:04:54;97762.88;;;8.82;81.15
80424;BME280;69765;47.668;19.326;2024-02-23T02:07:56;97755.50;;;8.70;82.14
80424;BME280;69765;47.668;19.326;2024-02-23T02:11:01;97760.03;;;8.60;84.35
80424;BME280;69765;47.668;19.326;2024-02-23T02:14:04;97757.13;;;8.52;85.96
80424;BME280;69765;47.668;19.326;2024-02-23T02:17:06;97763.97;;;8.53;85.50
80424;BME280;69765;47.668;19.326;2024-02-23T02:20:12;97779.09;;;8.50;86.48
80424;BME280;69765;47.668;19.326;2024-02-23T02:23:15;97757.59;;;8.45;88.51
80424;BME280;69765;47.668;19.326;2024-02-23T02:26:18;97761.50;;;8.38;87.95
80424;BME280;69765;47.668;19.326;2024-02-23T02:29:21;97761.66;;;8.41;87.85
80424;BME280;69765;47.668;19.326;2024-02-23T02:32:24;97767.63;;;8.42;88.12
80424;BME280;69765;47.668;19.326;2024-02-23T02:35:26;97757.19;;;8.37;90.69
80424;BME280;69765;47.668;19.326;2024-02-23T02:38:28;97741.88;;;8.37;89.34
80424;BME280;69765;47.668;19.326;2024-02-23T02:41:31;97749.34;;;8.51;88.81
80424;BME280;69765;47.668;19.326;2024-02-23T02:44:33;97751.13;;;8.52;88.48
80424;BME280;69765;47.668;19.326;2024-02-23T02:47:35;97750.34;;;8.53;89.27
80424;BME280;69765;47.668;19.326;2024-02-23T02:50:38;97747.63;;;8.50;88.85
80424;BME280;69765;47.668;19.326;2024-02-23T02:53:41;97753.75;;;8.53;87.19
80424;BME280;69765;47.668;19.326;2024-02-23T02:56:43;97755.56;;;8.56;89.18
80424;BME280;69765;47.668;19.326;2024-02-23T02:59:47;97761.47;;;8.55;90.05
80424;BME280;69765;47.668;19.326;2024-02-23T03:02:52;97766.28;;;8.49;95.08
80424;BME280;69765;47.668;19.326;2024-02-23T03:05:55;97754.00;;;8.41;96.40
80424;BME280;69765;47.668;19.326;2024-02-23T03:08:57;97761.94;;;8.31;99.75
80424;BME280;69765;47.668;19.326;2024-02-23T03:11:59;97768.66;;;8.29;98.62
80424;BME280;69765;47.668;19.326;2024-02-23T03:15:02;97773.91;;;8.16;100.00
80424;BME280;69765;47.668;19.326;2024-02-23T03:18:07;97760.91;;;8.11;100.00
80424;BME280;69765;47.668;19.326;2024-02-23T03:21:11;97780.59;;;7.98;100.00
80424;BME280;69765;47.668;19.326;2024-02-23T03:24:15;97774.44;;;7.94;100.00
80424;BME280;69765;47.668;19.326;2024-02-23T03:27:17;97785.50;;;7.94;100.00
80424;BME280;69765;47.668;19.326;2024-02-23T03:30:19;97781.13;;;7.92;100.00
80424;BME280;69765;47.668;19.326;2024-02-23T03:33:21;97759.19;;;7.63;100.00
80424;BME280;69765;47.668;19.326;2024-02-23T03:36:24;97779.66;;;7.81;100.00
80424;BME280;69765;47.668;19.326;2024-02-23T03:39:26;97782.38;;;7.84;100.00
80424;BME280;69765;47.668;19.326;2024-02-23T03:42:28;97781.88;;;7.75;100.00
80424;BME280;69765;47.668;19.326;2024-02-23T03:45:30;97777.34;;;7.69;100.00
80424;BME280;69765;47.668;19.326;2024-02-23T03:48:32;97781.56;;;7.68;100.00
80424;BME280;69765;47.668;19.326;2024-02-23T03:51:35;97781.38;;;7.65;100.00
80424;BME280;69765;47.668;19.326;2024-02-23T03:54:41;97779.56;;;7.63;100.00
80424;BME280;69765;47.668;19.326;2024-02-23T03:57:43;97778.22;;;7.69;100.00
80424;BME280;69765;47.668;19.326;2024-02-23T04:00:48;97769.63;;;7.67;100.00
80424;BME280;69765;47.668;19.326;2024-02-23T04:03:50;97778.22;;;7.69;100.00
80424;BME280;69765;47.668;19.326;2024-02-23T04:06:53;97787.72;;;7.72;100.00
80424;BME280;69765;47.668;19.326;2024-02-23T04:09:55;97785.78;;;7.68;100.00
80424;BME280;69765;47.668;19.326;2024-02-23T04:12:57;97786.13;;;7.74;100.00
80424;BME280;69765;47.668;19.326;2024-02-23T04:16:00;97787.59;;;7.71;100.00
80424;BME280;69765;47.668;19.326;2024-02-23T04:19:03;97782.13;;;7.79;100.00
80424;BME280;69765;47.668;19.326;2024-02-23T04:22:06;97782.75;;;7.75;100.00
80424;BME280;69765;47.668;19.326;2024-02-23T04:25:10;97769.78;;;7.71;100.00
80424;BME280;69765;47.668;19.326;2024-02-23T04:28:12;97789.38;;;7.72;100.00
80424;BME280;69765;47.668;19.326;2024-02-23T04:31:15;97779.31;;;7.58;100.00
80424;BME280;69765;47.668;19.326;2024-02-23T04:34:17;97786.88;;;7.42;100.00
80424;BME280;69765;47.668;19.326;2024-02-23T04:37:19;97778.84;;;7.34;100.00
80424;BME280;69765;47.668;19.326;2024-02-23T04:40:22;97788.22;;;7.35;100.00
80424;BME280;69765;47.668;19.326;2024-02-23T04:43:24;97783.50;;;7.27;100.00
80424;BME280;69765;47.668;19.326;2024-02-23T04:47:25;53628.75;;;-145.42;100.00
80424;BME280;69765;47.668;19.326;2024-02-23T04:51:26;53628.75;;;-145.42;100.00
80424;BME280;69765;47.668;19.326;2024-02-23T04:55:26;53628.75;;;-145.42;100.00
80424;BME280;69765;47.668;19.326;2024-02-23T04:59:27;53628.75;;;-145.42;100.00
80424;BME280;69765;47.668;19.326;2024-02-23T05:03:28;53628.75;;;-145.42;100.00
80424;BME280;69765;47.668;19.326;2024-02-23T05:07:32;53628.75;;;-145.42;100.00
80424;BME280;69765;47.668;19.326;2024-02-23T05:11:33;53628.75;;;-145.42;100.00
80424;BME280;69765;47.668;19.326;2024-02-23T05:15:34;53628.75;;;-145.42;100.00
80424;BME280;69765;47.668;19.326;2024-02-23T05:19:35;53628.75;;;-145.42;100.00
80424;BME280;69765;47.668;19.326;2024-02-23T05:23:37;53628.75;;;-145.42;100.00
80424;BME280;69765;47.668;19.326;2024-02-23T05:26:39;97796.78;;;7.67;100.00
80424;BME280;69765;47.668;19.326;2024-02-23T05:29:41;97796.06;;;7.69;100.00
80424;BME280;69765;47.668;19.326;2024-02-23T05:32:44;97801.09;;;7.68;100.00
80424;BME280;69765;47.668;19.326;2024-02-23T05:35:47;97810.00;;;7.76;100.00
80424;BME280;69765;47.668;19.326;2024-02-23T05:38:50;97817.03;;;7.80;100.00
80424;BME280;69765;47.668;19.326;2024-02-23T05:41:53;97815.78;;;7.88;100.00
80424;BME280;69765;47.668;19.326;2024-02-23T05:44:55;97829.31;;;7.87;100.00
80424;BME280;69765;47.668;19.326;2024-02-23T05:47:57;97847.53;;;7.79;100.00
80424;BME280;69765;47.668;19.326;2024-02-23T05:51:00;97844.81;;;7.76;100.00
80424;BME280;69765;47.668;19.326;2024-02-23T05:54:02;97854.84;;;7.73;100.00
80424;BME280;69765;47.668;19.326;2024-02-23T05:57:04;97857.16;;;7.68;100.00
80424;BME280;69765;47.668;19.326;2024-02-23T06:00:07;97869.72;;;7.65;100.00
80424;BME280;69765;47.668;19.326;2024-02-23T06:03:13;97873.06;;;7.64;100.00
80424;BME280;69765;47.668;19.326;2024-02-23T06:06:15;97872.31;;;7.66;100.00
80424;BME280;69765;47.668;19.326;2024-02-23T06:09:18;97890.91;;;7.64;100.00
80424;BME280;69765;47.668;19.326;2024-02-23T06:12:21;97891.59;;;7.61;100.00
80424;BME280;69765;47.668;19.326;2024-02-23T06:15:23;97892.66;;;7.65;100.00
80424;BME280;69765;47.668;19.326;2024-02-23T06:18:26;97904.50;;;7.64;100.00
80424;BME280;69765;47.668;19.326;2024-02-23T06:21:28;97900.81;;;7.59;100.00
80424;BME280;69765;47.668;19.326;2024-02-23T06:24:30;97910.41;;;7.63;100.00
80424;BME280;69765;47.668;19.326;2024-02-23T06:27:32;97907.66;;;7.60;100.00
80424;BME280;69765;47.668;19.326;2024-02-23T06:30:34;97910.22;;;7.60;100.00
80424;BME280;69765;47.668;19.326;2024-02-23T06:33:37;97915.06;;;7.56;100.00
80424;BME280;69765;47.668;19.326;2024-02-23T06:36:39;97921.22;;;7.59;100.00
80424;BME280;69765;47.668;19.326;2024-02-23T06:39:42;97916.19;;;7.61;100.00
80424;BME280;69765;47.668;19.326;2024-02-23T06:42:44;97918.94;;;7.64;100.00
80424;BME280;69765;47.668;19.326;2024-02-23T06:45:46;97920.75;;;7.66;100.00
80424;BME280;69765;47.668;19.326;2024-02-23T06:48:48;97908.19;;;7.69;100.00
80424;BME280;69765;47.668;19.326;2024-02-23T06:51:51;97926.38;;;7.76;100.00
80424;BME280;69765;47.668;19.326;2024-02-23T06:54:53;97918.72;;;7.76;100.00
80424;BME280;69765;47.668;19.326;2024-02-23T06:57:55;97921.53;;;7.80;100.00
80424;BME280;69765;47.668;19.326;2024-02-23T07:00:57;97924.00;;;7.79;100.00
80424;BME280;69765;47.668;19.326;2024-02-23T07:04:00;97922.94;;;7.75;100.00
80424;BME280;69765;47.668;19.326;2024-02-23T07:07:02;97923.13;;;7.78;100.00
80424;BME280;69765;47.668;19.326;2024-02-23T07:10:09;97917.25;;;7.79;100.00
80424;BME280;69765;47.668;19.326;2024-02-23T07:13:12;97921.91;;;7.86;100.00
80424;BME280;69765;47.668;19.326;2024-02-23T07:16:14;97910.91;;;7.87;100.00
80424;BME280;69765;47.668;19.326;2024-02-23T07:19:17;97918.19;;;7.96;100.00
80424;BME280;69765;47.668;19.326;2024-02-23T07:22:19;97919.94;;;7.97;100.00
80424;BME280;69765;47.668;19.326;2024-02-23T07:25:22;97923.63;;;8.02;100.00
80424;BME280;69765;47.668;19.326;2024-02-23T07:28:24;97917.47;;;7.99;100.00
80424;BME280;69765;47.668;19.326;2024-02-23T07:31:26;97930.06;;;7.96;100.00
80424;BME280;69765;47.668;19.326;2024-02-23T07:34:30;97928.66;;;8.01;100.00
80424;BME280;69765;47.668;19.326;2024-02-23T07:37:33;97936.13;;;7.98;100.00
80424;BME280;69765;47.668;19.326;2024-02-23T07:40:35;97935.94;;;7.94;100.00
80424;BME280;69765;47.668;19.326;2024-02-23T07:43:38;97935.84;;;7.93;100.00
80424;BME280;69765;47.668;19.326;2024-02-23T07:46:40;97934.97;;;7.92;100.00
80424;BME280;69765;47.668;19.326;2024-02-23T07:49:43;97935.06;;;7.94;100.00
80424;BME280;69765;47.668;19.326;2024-02-23T07:52:46;97931.56;;;7.92;100.00
80424;BME280;69765;47.668;19.326;2024-02-23T07:55:48;97932.88;;;8.00;100.00
80424;BME280;69765;47.668;19.326;2024-02-23T07:58:51;97924.06;;;7.95;100.00
80424;BME280;69765;47.668;19.326;2024-02-23T08:01:54;97934.16;;;8.08;100.00
80424;BME280;69765;47.668;19.326;2024-02-23T08:04:57;97933.28;;;8.08;100.00
80424;BME280;69765;47.668;19.326;2024-02-23T08:08:00;97943.59;;;8.09;100.00
80424;BME280;69765;47.668;19.326;2024-02-23T08:11:03;97944.47;;;8.10;100.00
80424;BME280;69765;47.668;19.326;2024-02-23T08:14:06;97944.16;;;8.20;100.00
80424;BME280;69765;47.668;19.326;2024-02-23T08:17:08;97945.47;;;8.28;100.00
80424;BME280;69765;47.668;19.326;2024-02-23T08:20:10;97948.28;;;8.33;100.00
80424;BME280;69765;47.668;19.326;2024-02-23T08:23:13;97952.00;;;8.38;100.00
80424;BME280;69765;47.668;19.326;2024-02-23T08:26:16;97957.00;;;8.36;100.00
80424;BME280;69765;47.668;19.326;2024-02-23T08:29:18;97965.41;;;8.35;100.00
80424;BME280;69765;47.668;19.326;2024-02-23T08:32:20;97958.84;;;8.39;100.00
80424;BME280;69765;47.668;19.326;2024-02-23T08:35:22;97958.03;;;8.40;100.00
80424;BME280;69765;47.668;19.326;2024-02-23T08:38:25;97969.38;;;8.45;100.00
80424;BME280;69765;47.668;19.326;2024-02-23T08:41:27;97963.34;;;8.59;100.00
80424;BME280;69765;47.668;19.326;2024-02-23T08:44:29;97955.13;;;8.65;100.00
80424;BME280;69765;47.668;19.326;2024-02-23T08:47:32;97958.25;;;8.59;100.00
80424;BME280;69765;47.668;19.326;2024-02-23T08:50:37;97970.06;;;8.57;100.00
80424;BME280;69765;47.668;19.326;2024-02-23T08:53:43;97965.91;;;8.59;100.00
80424;BME280;69765;47.668;19.326;2024-02-23T08:56:46;97962.47;;;8.59;100.00
80424;BME280;69765;47.668;19.326;2024-02-23T08:59:49;97961.78;;;8.78;100.00
80424;BME280;69765;47.668;19.326;2024-02-23T09:02:51;97971.13;;;8.93;100.00
80424;BME280;69765;47.668;19.326;2024-02-23T09:05:54;97973.78;;;8.95;100.00
80424;BME280;69765;47.668;19.326;2024-02-23T09:08:56;97977.22;;;8.95;100.00
80424;BME280;69765;47.668;19.326;2024-02-23T09:11:58;97970.72;;;9.02;100.00
80424;BME280;69765;47.668;19.326;2024-02-23T09:15:01;97971.72;;;9.04;100.00
80424;BME280;69765;47.668;19.326;2024-02-23T09:18:03;97979.63;;;9.09;100.00
80424;BME280;69765;47.668;19.326;2024-02-23T09:21:06;97979.19;;;9.01;100.00
80424;BME280;69765;47.668;19.326;2024-02-23T09:24:08;97974.91;;;9.00;100.00
80424;BME280;69765;47.668;19.326;2024-02-23T09:27:11;97979.63;;;9.09;100.00
80424;BME280;69765;47.668;19.326;2024-02-23T09:30:13;97978.41;;;9.02;100.00
80424;BME280;69765;47.668;19.326;2024-02-23T09:33:16;97987.41;;;9.12;100.00
80424;BME280;69765;47.668;19.326;2024-02-23T09:36:18;97974.41;;;9.07;100.00
80424;BME280;69765;47.668;19.326;2024-02-23T09:39:20;97974.41;;;9.07;100.00
80424;BME280;69765;47.668;19.326;2024-02-23T09:42:23;97976.25;;;9.10;100.00
80424;BME280;69765;47.668;19.326;2024-02-23T09:45:33;97974.41;;;9.07;100.00
80424;BME280;69765;47.668;19.326;2024-02-23T09:48:37;97979.28;;;9.19;100.00
80424;BME280;69765;47.668;19.326;2024-02-23T09:51:43;97981.03;;;9.20;100.00
80424;BME280;69765;47.668;19.326;2024-02-23T09:54:45;97982.47;;;9.31;100.00
80424;BME280;69765;47.668;19.326;2024-02-23T09:57:48;97990.34;;;9.36;100.00
80424;BME280;69765;47.668;19.326;2024-02-23T10:00:53;97992.84;;;9.34;100.00
80424;BME280;69765;47.668;19.326;2024-02-23T10:03:57;98007.06;;;9.29;100.00
80424;BME280;69765;47.668;19.326;2024-02-23T10:07:02;98000.44;;;9.16;100.00
80424;BME280;69765;47.668;19.326;2024-02-23T10:10:07;97989.91;;;9.10;100.00
80424;BME280;69765;47.668;19.326;2024-02-23T10:13:10;97999.56;;;9.16;100.00
80424;BME280;69765;47.668;19.326;2024-02-23T10:16:12;97992.19;;;9.22;100.00
80424;BME280;69765;47.668;19.326;2024-02-23T10:19:17;97993.81;;;9.20;100.00
80424;BME280;69765;47.668;19.326;2024-02-23T10:22:19;98005.53;;;9.16;100.00
80424;BME280;69765;47.668;19.326;2024-02-23T10:25:23;98013.38;;;9.19;100.00
80424;BME280;69765;47.668;19.326;2024-02-23T10:28:28;98020.63;;;9.12;100.00
80424;BME280;69765;47.668;19.326;2024-02-23T10:31:35;98021.66;;;9.15;100.00
80424;BME280;69765;47.668;19.326;2024-02-23T10:34:42;98027.34;;;9.26;100.00
80424;BME280;69765;47.668;19.326;2024-02-23T10:37:49;98030.22;;;9.32;100.00
80424;BME280;69765;47.668;19.326;2024-02-23T10:40:55;98017.03;;;9.25;100.00
80424;BME280;69765;47.668;19.326;2024-02-23T10:44:01;98023.84;;;9.24;100.00
80424;BME280;69765;47.668;19.326;2024-02-23T10:47:06;98028.22;;;9.27;100.00
80424;BME280;69765;47.668;19.326;2024-02-23T10:50:09;98021.09;;;9.21;100.00
80424;BME280;69765;47.668;19.326;2024-02-23T10:53:13;98028.88;;;9.23;100.00
80424;BME280;69765;47.668;19.326;2024-02-23T10:56:16;98028.06;;;9.24;100.00
80424;BME280;69765;47.668;19.326;2024-02-23T10:59:18;98024.94;;;9.29;100.00
80424;BME280;69765;47.668;19.326;2024-02-23T11:02:23;98035.34;;;9.32;100.00
80424;BME280;69765;47.668;19.326;2024-02-23T11:05:28;98029.19;;;9.29;100.00
80424;BME280;69765;47.668;19.326;2024-02-23T11:08:32;98033.56;;;9.31;100.00
80424;BME280;69765;47.668;19.326;2024-02-23T11:11:36;98037.50;;;9.25;100.00
80424;BME280;69765;47.668;19.326;2024-02-23T11:14:39;98045.47;;;9.14;100.00
80424;BME280;69765;47.668;19.326;2024-02-23T11:17:41;98044.59;;;9.14;100.00
80424;BME280;69765;47.668;19.326;2024-02-23T11:20:43;98034.63;;;9.18;100.00
80424;BME280;69765;47.668;19.326;2024-02-23T11:23:49;98040.03;;;9.25;100.00
80424;BME280;69765;47.668;19.326;2024-02-23T11:26:58;98047.16;;;9.30;100.00
80424;BME280;69765;47.668;19.326;2024-02-23T11:30:03;98036.59;;;9.40;100.00
80424;BME280;69765;47.668;19.326;2024-02-23T11:33:07;98032.53;;;9.44;100.00
80424;BME280;69765;47.668;19.326;2024-02-23T11:36:10;98039.25;;;9.42;100.00
80424;BME280;69765;47.668;19.326;2024-02-23T11:39:13;98041.06;;;9.44;100.00
80424;BME280;69765;47.668;19.326;2024-02-23T11:42:15;98039.63;;;9.50;100.00
80424;BME280;69765;47.668;19.326;2024-02-23T11:45:18;98038.66;;;9.64;100.00
80424;BME280;69765;47.668;19.326;2024-02-23T11:48:20;98036.84;;;9.61;100.00
80424;BME280;69765;47.668;19.326;2024-02-23T11:51:26;98040.22;;;9.60;100.00
80424;BME280;69765;47.668;19.326;2024-02-23T11:54:31;98024.13;;;9.63;100.00
80424;BME280;69765;47.668;19.326;2024-02-23T11:57:34;98022.28;;;9.77;100.00
80424;BME280;69765;47.668;19.326;2024-02-23T12:00:48;98025.28;;;9.86;100.00
80424;BME280;69765;47.668;19.326;2024-02-23T12:03:52;98020.34;;;9.89;100.00
80424;BME280;69765;47.668;19.326;2024-02-23T12:06:55;98015.47;;;9.93;100.00
80424;BME280;69765;47.668;19.326;2024-02-23T12:09:58;98019.94;;;10.15;100.00
80424;BME280;69765;47.668;19.326;2024-02-23T12:13:00;98009.75;;;10.33;100.00
80424;BME280;69765;47.668;19.326;2024-02-23T12:16:03;98003.97;;;10.37;100.00
80424;BME280;69765;47.668;19.326;2024-02-23T12:19:07;98015.91;;;10.37;100.00
80424;BME280;69765;47.668;19.326;2024-02-23T12:22:10;98019.91;;;10.32;100.00
80424;BME280;69765;47.668;19.326;2024-02-23T12:25:14;98010.50;;;10.31;100.00
80424;BME280;69765;47.668;19.326;2024-02-23T12:28:20;98017.75;;;10.23;100.00
80424;BME280;69765;47.668;19.326;2024-02-23T12:31:25;98019.28;;;10.19;100.00
80424;BME280;69765;47.668;19.326;2024-02-23T12:34:28;98016.16;;;10.25;100.00
80424;BME280;69765;47.668;19.326;2024-02-23T12:37:34;98007.41;;;10.38;100.00
80424;BME280;69765;47.668;19.326;2024-02-23T12:40:37;98006.53;;;10.55;100.00
80424;BME280;69765;47.668;19.326;2024-02-23T12:43:40;98005.06;;;10.60;100.00
80424;BME280;69765;47.668;19.326;2024-02-23T12:46:45;98010.47;;;10.66;100.00
80424;BME280;69765;47.668;19.326;2024-02-23T12:49:48;98011.94;;;10.61;100.00
80424;BME280;69765;47.668;19.326;2024-02-23T12:52:51;98014.13;;;10.54;100.00
80424;BME280;69765;47.668;19.326;2024-02-23T12:55:54;98013.78;;;10.46;100.00
80424;BME280;69765;47.668;19.326;2024-02-23T12:58:56;98013.56;;;10.41;100.00
80424;BME280;69765;47.668;19.326;2024-02-23T13:01:59;98021.72;;;10.34;100.00
80424;BME280;69765;47.668;19.326;2024-02-23T13:05:02;98025.69;;;10.28;100.00
80424;BME280;69765;47.668;19.326;2024-02-23T13:08:05;98027.22;;;10.24;100.00
80424;BME280;69765;47.668;19.326;2024-02-23T13:11:07;98025.84;;;10.14;100.00
80424;BME280;69765;47.668;19.326;2024-02-23T13:14:10;98030.16;;;10.15;100.00
80424;BME280;69765;47.668;19.326;2024-02-23T13:17:12;98025.56;;;10.08;100.00
80424;BME280;69765;47.668;19.326;2024-02-23T13:20:15;98030.94;;;9.96;100.00
80424;BME280;69765;47.668;19.326;2024-02-23T13:23:17;98026.56;;;9.94;100.00
80424;BME280;69765;47.668;19.326;2024-02-23T13:26:19;98026.03;;;10.01;100.00
80424;BME280;69765;47.668;19.326;2024-02-23T13:29:21;98032.13;;;10.03;100.00
80424;BME280;69765;47.668;19.326;2024-02-23T13:32:24;98034.25;;;9.94;100.00
80424;BME280;69765;47.668;19.326;2024-02-23T13:35:27;98037.44;;;9.90;100.00
80424;BME280;69765;47.668;19.326;2024-02-23T13:38:37;98030.41;;;9.86;100.00
80424;BME280;69765;47.668;19.326;2024-02-23T13:41:41;98030.41;;;9.86;100.00
80424;BME280;69765;47.668;19.326;2024-02-23T13:44:44;98023.78;;;9.89;100.00
80424;BME280;69765;47.668;19.326;2024-02-23T13:48:00;98024.66;;;9.90;100.00
80424;BME280;69765;47.668;19.326;2024-02-23T13:51:04;98020.34;;;9.89;100.00
80424;BME280;69765;47.668;19.326;2024-02-23T13:54:07;98024.25;;;9.82;100.00
80424;BME280;69765;47.668;19.326;2024-02-23T13:57:09;98023.63;;;9.86;100.00
80424;BME280;69765;47.668;19.326;2024-02-23T14:00:12;98030.00;;;9.78;100.00
80424;BME280;69765;47.668;19.326;2024-02-23T14:03:16;98020.53;;;9.76;100.00
80424;BME280;69765;47.668;19.326;2024-02-23T14:06:22;98024.13;;;9.79;100.00
80424;BME280;69765;47.668;19.326;2024-02-23T14:09:26;98018.13;;;9.79;100.00
80424;BME280;69765;47.668;19.326;2024-02-23T14:12:28;98013.22;;;9.83;100.00
80424;BME280;69765;47.668;19.326;2024-02-23T14:15:36;98013.97;;;9.81;100.00
80424;BME280;69765;47.668;19.326;2024-02-23T14:18:42;98009.19;;;9.70;100.00
80424;BME280;69765;47.668;19.326;2024-02-23T14:21:46;98005.81;;;9.71;100.00
80424;BME280;69765;47.668;19.326;2024-02-23T14:24:50;98013.56;;;9.73;100.00
80424;BME280;69765;47.668;19.326;2024-02-23T14:27:53;98014.38;;;9.72;100.00
80424;BME280;69765;47.668;19.326;2024-02-23T14:30:57;98010.88;;;9.70;100.00
80424;BME280;69765;47.668;19.326;2024-02-23T14:34:00;98012.56;;;9.69;100.00
80424;BME280;69765;47.668;19.326;2024-02-23T14:37:02;98012.38;;;9.66;100.00
80424;BME280;69765;47.668;19.326;2024-02-23T14:40:05;98020.75;;;9.64;100.00
80424;BME280;69765;47.668;19.326;2024-02-23T14:43:07;98009.28;;;9.56;100.00
80424;BME280;69765;47.668;19.326;2024-02-23T14:46:11;98006.34;;;9.48;100.00
80424;BME280;69765;47.668;19.326;2024-02-23T14:49:14;98012.88;;;9.43;100.00
80424;BME280;69765;47.668;19.326;2024-02-23T14:52:16;98014.94;;;9.50;100.00
80424;BME280;69765;47.668;19.326;2024-02-23T14:55:18;98013.31;;;9.51;100.00
80424;BME280;69765;47.668;19.326;2024-02-23T14:58:21;98021.38;;;9.42;100.00
80424;BME280;69765;47.668;19.326;2024-02-23T15:01:23;98020.31;;;9.38;100.00
80424;BME280;69765;47.668;19.326;2024-02-23T15:04:25;98019.84;;;9.29;100.00
80424;BME280;69765;47.668;19.326;2024-02-23T15:07:27;98018.91;;;9.27;100.00
80424;BME280;69765;47.668;19.326;2024-02-23T15:10:33;98011.00;;;9.23;100.00
80424;BME280;69765;47.668;19.326;2024-02-23T15:13:38;98011.94;;;9.25;100.00
80424;BME280;69765;47.668;19.326;2024-02-23T15:16:41;98002.22;;;9.17;100.00
80424;BME280;69765;47.668;19.326;2024-02-23T15:19:43;98008.09;;;9.16;100.00
80424;BME280;69765;47.668;19.326;2024-02-23T15:22:45;98010.75;;;9.18;100.00
80424;BME280;69765;47.668;19.326;2024-02-23T15:25:49;98011.63;;;9.18;100.00
80424;BME280;69765;47.668;19.326;2024-02-23T15:29:05;98006.41;;;9.17;100.00
80424;BME280;69765;47.668;19.326;2024-02-23T15:32:07;97993.34;;;9.11;100.00
80424;BME280;69765;47.668;19.326;2024-02-23T15:35:09;97996.69;;;9.10;100.00
80424;BME280;69765;47.668;19.326;2024-02-23T15:38:12;98005.22;;;9.10;100.00
80424;BME280;69765;47.668;19.326;2024-02-23T15:41:14;98006.84;;;9.08;100.00
80424;BME280;69765;47.668;19.326;2024-02-23T15:44:16;97999.25;;;9.10;100.00
80424;BME280;69765;47.668;19.326;2024-02-23T15:47:22;97998.44;;;9.11;100.00
80424;BME280;69765;47.668;19.326;2024-02-23T15:50:24;98003.53;;;9.11;100.00
80424;BME280;69765;47.668;19.326;2024-02-23T15:53:49;98006.09;;;9.11;100.00
80424;BME280;69765;47.668;19.326;2024-02-23T15:56:51;98002.50;;;9.07;100.00
80424;BME280;69765;47.668;19.326;2024-02-23T15:59:53;98002.50;;;9.07;100.00
80424;BME280;69765;47.668;19.326;2024-02-23T16:03:05;97999.06;;;9.07;100.00
80424;BME280;69765;47.668;19.326;2024-02-23T16:06:08;97996.91;;;8.98;100.00